sensor_id;sensor_type;location;lat;lon;timestamp;temperature;humidity
6468;DHT22;3267;48.794;9.928;2022-11-15T05:03:35;16.80;99.90
6468;DHT22;3267;48.794;9.928;2022-11-15T05:06:20;16.40;99.90
6468;DHT22;3267;48.794;9.928;2022-11-15T05:08:46;16.10;99.90
6468;DHT22;3267;48.794;9.928;2022-11-15T05:11:12;17.70;99.90
6468;DHT22;3267;48.794;9.928;2022-11-15T05:13:38;15.80;99.90
6468;DHT22;3267;48.794;9.928;2022-11-15T05:16:04;16.00;99.90
6468;DHT22;3267;48.794;9.928;2022-11-15T05:18:30;16.30;99.90
6468;DHT22;3267;48.794;9.928;2022-11-15T05:20:55;16.40;99.90
6468;DHT22;3267;48.794;9.928;2022-11-15T05:23:21;16.60;99.90
6468;DHT22;3267;48.794;9.928;2022-11-15T05:25:47;16.60;99.90
6468;DHT22;3267;48.794;9.928;2022-11-15T05:28:13;16.30;99.90
6468;DHT22;3267;48.794;9.928;2022-11-15T05:30:39;16.60;99.90
6468;DHT22;3267;48.794;9.928;2022-11-15T05:33:04;16.90;99.90
6468;DHT22;3267;48.794;9.928;2022-11-15T05:35:42;16.50;99.90
6468;DHT22;3267;48.794;9.928;2022-11-15T05:38:09;16.30;99.90
6468;DHT22;3267;48.794;9.928;2022-11-15T05:40:35;16.20;99.90
6468;DHT22;3267;48.794;9.928;2022-11-15T05:43:02;16.50;99.90
6468;DHT22;3267;48.794;9.928;2022-11-15T05:45:29;16.20;99.90
6468;DHT22;3267;48.794;9.928;2022-11-15T05:47:56;16.10;99.90
6468;DHT22;3267;48.794;9.928;2022-11-15T05:50:23;17.70;99.90
6468;DHT22;3267;48.794;9.928;2022-11-15T05:52:50;15.80;99.90
6468;DHT22;3267;48.794;9.928;2022-11-15T05:55:16;15.30;99.90
6468;DHT22;3267;48.794;9.928;2022-11-15T05:57:43;15.10;99.90
6468;DHT22;3267;48.794;9.928;2022-11-15T06:00:10;15.40;99.90
6468;DHT22;3267;48.794;9.928;2022-11-15T06:02:36;15.80;99.90
6468;DHT22;3267;48.794;9.928;2022-11-15T06:05:02;15.90;99.90
6468;DHT22;3267;48.794;9.928;2022-11-15T06:07:29;15.60;99.90
6468;DHT22;3267;48.794;9.928;2022-11-15T06:09:55;15.90;99.90
6468;DHT22;3267;48.794;9.928;2022-11-15T06:12:21;15.90;99.90
6468;DHT22;3267;48.794;9.928;2022-11-15T06:14:46;15.90;99.90
6468;DHT22;3267;48.794;9.928;2022-11-15T06:17:12;16.10;99.90
6468;DHT22;3267;48.794;9.928;2022-11-15T06:19:38;17.20;99.90
6468;DHT22;3267;48.794;9.928;2022-11-15T06:22:04;16.30;99.90
6468;DHT22;3267;48.794;9.928;2022-11-15T06:24:30;16.00;99.90
6468;DHT22;3267;48.794;9.928;2022-11-15T06:26:56;15.90;99.90
6468;DHT22;3267;48.794;9.928;2022-11-15T06:29:23;15.70;99.90
6468;DHT22;3267;48.794;9.928;2022-11-15T06:31:49;15.80;99.90
6468;DHT22;3267;48.794;9.928;2022-11-15T06:34:14;15.70;99.90
6468;DHT22;3267;48.794;9.928;2022-11-15T06:36:40;16.90;99.90
6468;DHT22;3267;48.794;9.928;2022-11-15T06:39:06;15.90;99.90
6468;DHT22;3267;48.794;9.928;2022-11-15T06:41:35;15.90;99.90
6468;DHT22;3267;48.794;9.928;2022-11-15T06:44:02;17.50;99.90
6468;DHT22;3267;48.794;9.928;2022-11-15T06:46:28;16.00;99.90
6468;DHT22;3267;48.794;9.928;2022-11-15T06:48:53;16.00;99.90
6468;DHT22;3267;48.794;9.928;2022-11-15T06:51:19;15.60;99.90
6468;DHT22;3267;48.794;9.928;2022-11-15T06:53:45;16.10;99.90
6468;DHT22;3267;48.794;9.928;2022-11-15T06:56:11;15.30;99.90
6468;DHT22;3267;48.794;9.928;2022-11-15T06:58:37;15.00;99.90
6468;DHT22;3267;48.794;9.928;2022-11-15T07:01:07;14.80;99.90
6468;DHT22;3267;48.794;9.928;2022-11-15T07:03:38;14.70;99.90
6468;DHT22;3267;48.794;9.928;2022-11-15T07:06:04;14.60;99.90
6468;DHT22;3267;48.794;9.928;2022-11-15T07:08:30;14.50;99.90
6468;DHT22;3267;48.794;9.928;2022-11-15T07:11:00;15.40;99.90
6468;DHT22;3267;48.794;9.928;2022-11-15T07:13:28;14.40;99.90
6468;DHT22;3267;48.794;9.928;2022-11-15T07:15:54;14.30;99.90
6468;DHT22;3267;48.794;9.928;2022-11-15T07:18:20;14.20;99.90
6468;DHT22;3267;48.794;9.928;2022-11-15T07:20:45;14.10;99.90
6468;DHT22;3267;48.794;9.928;2022-11-15T07:23:11;14.00;99.90
6468;DHT22;3267;48.794;9.928;2022-11-15T07:25:37;14.00;99.90
6468;DHT22;3267;48.794;9.928;2022-11-15T07:28:03;13.90;99.90
6468;DHT22;3267;48.794;9.928;2022-11-15T07:30:29;13.90;99.90
6468;DHT22;3267;48.794;9.928;2022-11-15T07:32:55;13.80;99.90
6468;DHT22;3267;48.794;9.928;2022-11-15T07:35:23;16.00;99.90
6468;DHT22;3267;48.794;9.928;2022-11-15T07:38:00;13.80;99.90
6468;DHT22;3267;48.794;9.928;2022-11-15T07:40:28;13.70;99.90
6468;DHT22;3267;48.794;9.928;2022-11-15T07:43:05;15.20;99.90
6468;DHT22;3267;48.794;9.928;2022-11-15T07:45:32;14.60;99.90
6468;DHT22;3267;48.794;9.928;2022-11-15T07:48:01;13.70;99.90
6468;DHT22;3267;48.794;9.928;2022-11-15T07:50:27;13.60;99.90
6468;DHT22;3267;48.794;9.928;2022-11-15T07:52:58;13.50;99.90
6468;DHT22;3267;48.794;9.928;2022-11-15T07:55:26;14.70;99.90
6468;DHT22;3267;48.794;9.928;2022-11-15T07:57:53;13.80;99.90
6468;DHT22;3267;48.794;9.928;2022-11-15T08:00:19;13.40;99.90
6468;DHT22;3267;48.794;9.928;2022-11-15T08:02:45;13.40;99.90
6468;DHT22;3267;48.794;9.928;2022-11-15T08:05:11;13.50;99.90
6468;DHT22;3267;48.794;9.928;2022-11-15T08:07:37;13.50;99.90
6468;DHT22;3267;48.794;9.928;2022-11-15T08:10:05;13.60;99.90
6468;DHT22;3267;48.794;9.928;2022-11-15T08:12:32;13.50;99.90
6468;DHT22;3267;48.794;9.928;2022-11-15T08:14:58;13.50;99.90
6468;DHT22;3267;48.794;9.928;2022-11-15T08:17:24;14.60;99.90
6468;DHT22;3267;48.794;9.928;2022-11-15T08:19:50;13.60;99.90
6468;DHT22;3267;48.794;9.928;2022-11-15T08:22:17;13.60;99.90
6468;DHT22;3267;48.794;9.928;2022-11-15T08:24:44;13.60;99.30
6468;DHT22;3267;48.794;9.928;2022-11-15T08:27:10;13.60;98.90
6468;DHT22;3267;48.794;9.928;2022-11-15T08:29:42;13.60;98.70
6468;DHT22;3267;48.794;9.928;2022-11-15T08:32:08;13.60;98.90
6468;DHT22;3267;48.794;9.928;2022-11-15T08:34:34;14.70;99.60
6468;DHT22;3267;48.794;9.928;2022-11-15T08:37:00;13.70;98.90
6468;DHT22;3267;48.794;9.928;2022-11-15T08:39:26;13.70;99.00
6468;DHT22;3267;48.794;9.928;2022-11-15T08:41:52;15.80;99.20
6468;DHT22;3267;48.794;9.928;2022-11-15T08:44:17;13.70;98.30
6468;DHT22;3267;48.794;9.928;2022-11-15T08:46:45;14.00;99.30
6468;DHT22;3267;48.794;9.928;2022-11-15T08:49:11;14.00;98.70
6468;DHT22;3267;48.794;9.928;2022-11-15T08:51:37;14.00;98.30
6468;DHT22;3267;48.794;9.928;2022-11-15T08:54:03;14.20;98.40
6468;DHT22;3267;48.794;9.928;2022-11-15T08:56:29;14.10;98.20
6468;DHT22;3267;48.794;9.928;2022-11-15T08:58:55;14.10;97.80
6468;DHT22;3267;48.794;9.928;2022-11-15T09:01:21;14.10;97.70
6468;DHT22;3267;48.794;9.928;2022-11-15T09:03:47;14.10;97.40
6468;DHT22;3267;48.794;9.928;2022-11-15T09:06:13;14.20;97.20
6468;DHT22;3267;48.794;9.928;2022-11-15T09:08:40;14.20;97.00
6468;DHT22;3267;48.794;9.928;2022-11-15T09:11:07;14.30;97.10
6468;DHT22;3267;48.794;9.928;2022-11-15T09:13:34;14.30;96.60
6468;DHT22;3267;48.794;9.928;2022-11-15T09:16:03;14.40;96.60
6468;DHT22;3267;48.794;9.928;2022-11-15T09:18:30;14.50;96.70
6468;DHT22;3267;48.794;9.928;2022-11-15T09:20:59;14.50;96.50
6468;DHT22;3267;48.794;9.928;2022-11-15T09:23:26;14.60;96.30
6468;DHT22;3267;48.794;9.928;2022-11-15T09:25:52;14.60;96.30
6468;DHT22;3267;48.794;9.928;2022-11-15T09:28:18;16.30;97.00
6468;DHT22;3267;48.794;9.928;2022-11-15T09:30:44;14.70;96.10
6468;DHT22;3267;48.794;9.928;2022-11-15T09:33:12;15.10;96.10
6468;DHT22;3267;48.794;9.928;2022-11-15T09:35:38;16.10;96.50
6468;DHT22;3267;48.794;9.928;2022-11-15T09:38:04;14.90;95.70
6468;DHT22;3267;48.794;9.928;2022-11-15T09:40:31;15.50;95.70
6468;DHT22;3267;48.794;9.928;2022-11-15T09:43:17;15.00;95.30
6468;DHT22;3267;48.794;9.928;2022-11-15T09:48:54;15.20;95.40
6468;DHT22;3267;48.794;9.928;2022-11-15T09:51:34;15.20;95.10
6468;DHT22;3267;48.794;9.928;2022-11-15T09:54:27;15.20;95.00
6468;DHT22;3267;48.794;9.928;2022-11-15T09:56:56;15.30;95.20
6468;DHT22;3267;48.794;9.928;2022-11-15T09:59:43;16.10;95.00
6468;DHT22;3267;48.794;9.928;2022-11-15T10:02:33;15.80;95.00
6468;DHT22;3267;48.794;9.928;2022-11-15T10:05:03;15.30;94.70
6468;DHT22;3267;48.794;9.928;2022-11-15T10:07:56;15.40;94.30
6468;DHT22;3267;48.794;9.928;2022-11-15T10:12:58;15.50;94.20
6468;DHT22;3267;48.794;9.928;2022-11-15T10:15:24;17.50;95.00
6468;DHT22;3267;48.794;9.928;2022-11-15T10:18:18;15.60;94.20
6468;DHT22;3267;48.794;9.928;2022-11-15T10:21:11;15.60;94.10
6468;DHT22;3267;48.794;9.928;2022-11-15T10:23:39;15.70;93.80
6468;DHT22;3267;48.794;9.928;2022-11-15T10:26:09;15.70;93.70
6468;DHT22;3267;48.794;9.928;2022-11-15T10:28:36;16.20;93.80
6468;DHT22;3267;48.794;9.928;2022-11-15T10:31:02;15.80;93.40
6468;DHT22;3267;48.794;9.928;2022-11-15T10:33:34;15.80;93.40
6468;DHT22;3267;48.794;9.928;2022-11-15T10:39:01;16.10;93.70
6468;DHT22;3267;48.794;9.928;2022-11-15T10:41:30;16.10;94.00
6468;DHT22;3267;48.794;9.928;2022-11-15T10:44:23;16.00;93.30
6468;DHT22;3267;48.794;9.928;2022-11-15T10:49:26;17.30;93.50
6468;DHT22;3267;48.794;9.928;2022-11-15T10:52:17;16.20;92.10
6468;DHT22;3267;48.794;9.928;2022-11-15T10:57:52;16.30;92.70
6468;DHT22;3267;48.794;9.928;2022-11-15T11:05:32;16.70;92.20
6468;DHT22;3267;48.794;9.928;2022-11-15T11:08:20;16.50;92.40
6468;DHT22;3267;48.794;9.928;2022-11-15T11:10:58;16.70;92.90
6468;DHT22;3267;48.794;9.928;2022-11-15T11:13:29;16.60;93.00
6468;DHT22;3267;48.794;9.928;2022-11-15T11:18:59;16.70;93.70
6468;DHT22;3267;48.794;9.928;2022-11-15T11:30:18;17.00;93.50
6468;DHT22;3267;48.794;9.928;2022-11-15T11:32:55;17.00;93.60
6468;DHT22;3267;48.794;9.928;2022-11-15T11:44:25;17.20;92.70
6468;DHT22;3267;48.794;9.928;2022-11-15T11:47:01;17.30;93.10
6468;DHT22;3267;48.794;9.928;2022-11-15T11:49:48;17.40;92.50
6468;DHT22;3267;48.794;9.928;2022-11-15T12:00:21;17.30;91.10
6468;DHT22;3267;48.794;9.928;2022-11-15T12:05:39;17.40;92.30
6468;DHT22;3267;48.794;9.928;2022-11-15T12:08:33;17.40;92.60
6468;DHT22;3267;48.794;9.928;2022-11-15T12:11:12;17.50;93.60
6468;DHT22;3267;48.794;9.928;2022-11-15T12:13:40;17.50;92.90
6468;DHT22;3267;48.794;9.928;2022-11-15T12:16:22;19.20;93.70
6468;DHT22;3267;48.794;9.928;2022-11-15T12:18:52;17.50;93.30
6468;DHT22;3267;48.794;9.928;2022-11-15T12:21:39;17.50;93.00
6468;DHT22;3267;48.794;9.928;2022-11-15T12:24:29;17.50;93.40
6468;DHT22;3267;48.794;9.928;2022-11-15T12:27:34;17.70;93.70
6468;DHT22;3267;48.794;9.928;2022-11-15T12:30:07;17.50;93.50
6468;DHT22;3267;48.794;9.928;2022-11-15T12:32:37;17.50;92.80
6468;DHT22;3267;48.794;9.928;2022-11-15T12:35:20;19.40;93.60
6468;DHT22;3267;48.794;9.928;2022-11-15T12:37:49;17.60;92.90
6468;DHT22;3267;48.794;9.928;2022-11-15T12:40:25;18.70;93.20
6468;DHT22;3267;48.794;9.928;2022-11-15T12:43:41;17.60;92.30
6468;DHT22;3267;48.794;9.928;2022-11-15T12:45:47;17.70;92.50
6468;DHT22;3267;48.794;9.928;2022-11-15T12:58:53;17.90;92.30
6468;DHT22;3267;48.794;9.928;2022-11-15T13:12:09;18.20;92.40
6468;DHT22;3267;48.794;9.928;2022-11-15T13:15:01;18.20;91.80
6468;DHT22;3267;48.794;9.928;2022-11-15T13:17:31;18.20;91.60
6468;DHT22;3267;48.794;9.928;2022-11-15T13:20:00;18.20;91.90
6468;DHT22;3267;48.794;9.928;2022-11-15T13:22:27;18.20;92.00
6468;DHT22;3267;48.794;9.928;2022-11-15T13:25:19;18.60;92.40
6468;DHT22;3267;48.794;9.928;2022-11-15T13:27:50;18.30;92.70
6468;DHT22;3267;48.794;9.928;2022-11-15T13:30:21;18.30;92.70
6468;DHT22;3267;48.794;9.928;2022-11-15T13:32:48;18.40;92.80
6468;DHT22;3267;48.794;9.928;2022-11-15T13:35:24;18.30;92.30
6468;DHT22;3267;48.794;9.928;2022-11-15T13:37:51;18.70;92.60
6468;DHT22;3267;48.794;9.928;2022-11-15T13:40:33;18.90;92.20
6468;DHT22;3267;48.794;9.928;2022-11-15T13:43:19;18.30;92.30
6468;DHT22;3267;48.794;9.928;2022-11-15T13:48:37;18.30;92.90
6468;DHT22;3267;48.794;9.928;2022-11-15T13:51:20;18.30;92.00
6468;DHT22;3267;48.794;9.928;2022-11-15T13:53:56;18.20;92.00
6468;DHT22;3267;48.794;9.928;2022-11-15T13:56:24;18.20;92.00
6468;DHT22;3267;48.794;9.928;2022-11-15T13:58:58;18.20;92.00
6468;DHT22;3267;48.794;9.928;2022-11-15T14:01:27;18.20;92.00
6468;DHT22;3267;48.794;9.928;2022-11-15T14:03:58;18.30;92.00
6468;DHT22;3267;48.794;9.928;2022-11-15T14:06:29;18.20;92.20
6468;DHT22;3267;48.794;9.928;2022-11-15T14:11:37;18.80;93.00
6468;DHT22;3267;48.794;9.928;2022-11-15T14:14:13;18.30;92.30
6468;DHT22;3267;48.794;9.928;2022-11-15T14:16:43;18.20;92.60
6468;DHT22;3267;48.794;9.928;2022-11-15T14:22:19;18.20;93.10
6468;DHT22;3267;48.794;9.928;2022-11-15T14:25:15;18.20;93.20
6468;DHT22;3267;48.794;9.928;2022-11-15T14:27:43;18.20;93.20
6468;DHT22;3267;48.794;9.928;2022-11-15T14:30:16;18.10;93.00
6468;DHT22;3267;48.794;9.928;2022-11-15T14:32:45;18.10;93.20
6468;DHT22;3267;48.794;9.928;2022-11-15T14:35:18;19.00;93.90
6468;DHT22;3267;48.794;9.928;2022-11-15T14:37:45;18.20;94.40
6468;DHT22;3267;48.794;9.928;2022-11-15T14:40:19;18.40;94.20
6468;DHT22;3267;48.794;9.928;2022-11-15T14:42:47;18.20;94.50
6468;DHT22;3267;48.794;9.928;2022-11-15T14:45:15;18.10;94.00
6468;DHT22;3267;48.794;9.928;2022-11-15T14:47:42;18.10;94.60
6468;DHT22;3267;48.794;9.928;2022-11-15T14:50:14;18.10;95.40
6468;DHT22;3267;48.794;9.928;2022-11-15T14:52:40;18.20;95.10
6468;DHT22;3267;48.794;9.928;2022-11-15T14:55:20;18.20;95.90
6468;DHT22;3267;48.794;9.928;2022-11-15T14:57:46;18.20;98.10
6468;DHT22;3267;48.794;9.928;2022-11-15T15:00:13;18.10;96.20
6468;DHT22;3267;48.794;9.928;2022-11-15T15:02:42;18.10;95.00
6468;DHT22;3267;48.794;9.928;2022-11-15T15:05:25;20.20;95.40
6468;DHT22;3267;48.794;9.928;2022-11-15T15:07:53;18.00;95.30
6468;DHT22;3267;48.794;9.928;2022-11-15T15:10:19;18.50;99.20
6468;DHT22;3267;48.794;9.928;2022-11-15T15:12:45;18.40;97.20
6468;DHT22;3267;48.794;9.928;2022-11-15T15:15:37;18.30;97.00
6468;DHT22;3267;48.794;9.928;2022-11-15T15:18:04;18.20;98.30
6468;DHT22;3267;48.794;9.928;2022-11-15T15:20:34;18.20;97.70
6468;DHT22;3267;48.794;9.928;2022-11-15T15:23:00;18.40;99.90
6468;DHT22;3267;48.794;9.928;2022-11-15T15:25:34;19.80;98.70
6468;DHT22;3267;48.794;9.928;2022-11-15T15:28:01;18.40;98.60
6468;DHT22;3267;48.794;9.928;2022-11-15T15:30:29;18.90;97.80
6468;DHT22;3267;48.794;9.928;2022-11-15T15:32:55;18.00;98.30
6468;DHT22;3267;48.794;9.928;2022-11-15T15:35:21;18.20;99.90
6468;DHT22;3267;48.794;9.928;2022-11-15T15:37:48;18.50;99.30
6468;DHT22;3267;48.794;9.928;2022-11-15T15:40:17;18.30;99.50
6468;DHT22;3267;48.794;9.928;2022-11-15T15:42:43;18.20;99.90
6468;DHT22;3267;48.794;9.928;2022-11-15T15:45:10;18.20;99.00
6468;DHT22;3267;48.794;9.928;2022-11-15T15:47:36;18.10;99.90
6468;DHT22;3267;48.794;9.928;2022-11-15T15:50:09;18.10;99.90
6468;DHT22;3267;48.794;9.928;2022-11-15T15:52:37;18.10;99.90
6468;DHT22;3267;48.794;9.928;2022-11-15T15:55:03;18.30;99.90
6468;DHT22;3267;48.794;9.928;2022-11-15T15:57:29;18.30;99.90
6468;DHT22;3267;48.794;9.928;2022-11-15T15:59:55;18.30;99.90
6468;DHT22;3267;48.794;9.928;2022-11-15T16:02:20;18.20;99.90
6468;DHT22;3267;48.794;9.928;2022-11-15T16:04:46;18.80;99.90
6468;DHT22;3267;48.794;9.928;2022-11-15T16:07:18;18.20;99.90
6468;DHT22;3267;48.794;9.928;2022-11-15T16:09:46;18.10;99.90
6468;DHT22;3267;48.794;9.928;2022-11-15T16:12:35;18.00;99.90
6468;DHT22;3267;48.794;9.928;2022-11-15T16:15:02;17.70;99.90
6468;DHT22;3267;48.794;9.928;2022-11-15T16:17:35;17.50;99.50
6468;DHT22;3267;48.794;9.928;2022-11-15T16:20:03;17.50;99.90
6468;DHT22;3267;48.794;9.928;2022-11-15T16:22:29;17.80;99.90
6468;DHT22;3267;48.794;9.928;2022-11-15T16:24:55;17.90;99.90
6468;DHT22;3267;48.794;9.928;2022-11-15T16:27:22;18.00;99.90
6468;DHT22;3267;48.794;9.928;2022-11-15T16:29:48;19.50;99.90
6468;DHT22;3267;48.794;9.928;2022-11-15T16:32:15;17.70;99.90
6468;DHT22;3267;48.794;9.928;2022-11-15T16:34:41;17.70;99.90
6468;DHT22;3267;48.794;9.928;2022-11-15T16:37:23;17.30;99.90
6468;DHT22;3267;48.794;9.928;2022-11-15T16:39:49;17.20;99.90
6468;DHT22;3267;48.794;9.928;2022-11-15T16:42:18;17.70;99.80
6468;DHT22;3267;48.794;9.928;2022-11-15T16:44:44;17.00;99.90
6468;DHT22;3267;48.794;9.928;2022-11-15T16:47:19;18.30;99.90
6468;DHT22;3267;48.794;9.928;2022-11-15T16:49:45;17.20;99.90
6468;DHT22;3267;48.794;9.928;2022-11-15T16:52:12;17.00;99.90
6468;DHT22;3267;48.794;9.928;2022-11-15T16:54:37;16.90;99.90
6468;DHT22;3267;48.794;9.928;2022-11-15T16:57:04;16.80;99.70
6468;DHT22;3267;48.794;9.928;2022-11-15T16:59:29;17.60;98.80
6468;DHT22;3267;48.794;9.928;2022-11-15T17:01:58;16.60;99.90
6468;DHT22;3267;48.794;9.928;2022-11-15T17:04:23;18.60;99.90
6468;DHT22;3267;48.794;9.928;2022-11-15T17:06:52;17.00;99.90
6468;DHT22;3267;48.794;9.928;2022-11-15T17:09:20;16.90;99.90
6468;DHT22;3267;48.794;9.928;2022-11-15T17:11:49;16.90;99.90
6468;DHT22;3267;48.794;9.928;2022-11-15T17:14:16;16.70;98.90
6468;DHT22;3267;48.794;9.928;2022-11-15T17:16:42;16.80;99.90
6468;DHT22;3267;48.794;9.928;2022-11-15T17:19:17;18.30;99.90
6468;DHT22;3267;48.794;9.928;2022-11-15T17:21:46;16.70;99.90
6468;DHT22;3267;48.794;9.928;2022-11-15T17:24:14;16.90;99.90
6468;DHT22;3267;48.794;9.928;2022-11-15T17:26:40;17.00;99.90
6468;DHT22;3267;48.794;9.928;2022-11-15T17:29:07;17.70;99.90
6468;DHT22;3267;48.794;9.928;2022-11-15T17:31:37;17.20;99.90
6468;DHT22;3267;48.794;9.928;2022-11-15T17:34:04;17.10;99.90
6468;DHT22;3267;48.794;9.928;2022-11-15T17:36:31;17.20;99.90
6468;DHT22;3267;48.794;9.928;2022-11-15T17:38:57;17.00;99.90
6468;DHT22;3267;48.794;9.928;2022-11-15T17:41:23;17.00;99.90
6468;DHT22;3267;48.794;9.928;2022-11-15T17:43:49;17.60;99.90
6468;DHT22;3267;48.794;9.928;2022-11-15T17:46:17;17.30;99.90
6468;DHT22;3267;48.794;9.928;2022-11-15T17:48:44;17.10;99.90
6468;DHT22;3267;48.794;9.928;2022-11-15T17:51:12;16.80;99.80
6468;DHT22;3267;48.794;9.928;2022-11-15T17:53:41;16.90;99.90
6468;DHT22;3267;48.794;9.928;2022-11-15T17:56:15;16.50;99.90
6468;DHT22;3267;48.794;9.928;2022-11-15T17:58:41;16.40;99.80
6468;DHT22;3267;48.794;9.928;2022-11-15T18:01:20;16.20;99.10
6468;DHT22;3267;48.794;9.928;2022-11-15T18:03:47;16.50;99.90
6468;DHT22;3267;48.794;9.928;2022-11-15T18:06:14;16.20;98.20
6468;DHT22;3267;48.794;9.928;2022-11-15T18:08:43;16.00;99.00
6468;DHT22;3267;48.794;9.928;2022-11-15T18:11:14;16.20;99.90
6468;DHT22;3267;48.794;9.928;2022-11-15T18:13:41;17.60;99.90
6468;DHT22;3267;48.794;9.928;2022-11-15T18:16:11;16.50;99.90
6468;DHT22;3267;48.794;9.928;2022-11-15T18:18:38;16.70;99.90
6468;DHT22;3267;48.794;9.928;2022-11-15T18:21:09;16.60;99.90
6468;DHT22;3267;48.794;9.928;2022-11-15T18:23:35;16.90;99.90
6468;DHT22;3267;48.794;9.928;2022-11-15T18:26:02;16.70;99.90
6468;DHT22;3267;48.794;9.928;2022-11-15T18:28:33;17.30;99.40
6468;DHT22;3267;48.794;9.928;2022-11-15T18:31:01;16.90;99.90
6468;DHT22;3267;48.794;9.928;2022-11-15T18:33:29;16.20;99.20
6468;DHT22;3267;48.794;9.928;2022-11-15T18:36:05;17.20;99.90
6468;DHT22;3267;48.794;9.928;2022-11-15T18:38:31;16.00;99.30
6468;DHT22;3267;48.794;9.928;2022-11-15T18:41:08;16.00;99.10
6468;DHT22;3267;48.794;9.928;2022-11-15T18:43:35;16.20;99.80
6468;DHT22;3267;48.794;9.928;2022-11-15T18:48:29;18.10;99.90
6468;DHT22;3267;48.794;9.928;2022-11-15T18:51:03;15.90;98.90
6468;DHT22;3267;48.794;9.928;2022-11-15T18:53:29;16.00;99.90
6468;DHT22;3267;48.794;9.928;2022-11-15T18:56:06;16.90;99.90
6468;DHT22;3267;48.794;9.928;2022-11-15T18:58:36;15.90;99.50
6468;DHT22;3267;48.794;9.928;2022-11-15T19:03:41;15.90;99.90
6468;DHT22;3267;48.794;9.928;2022-11-15T19:06:18;16.50;99.90
6468;DHT22;3267;48.794;9.928;2022-11-15T19:08:46;16.40;99.50
6468;DHT22;3267;48.794;9.928;2022-11-15T19:11:15;17.50;99.90
6468;DHT22;3267;48.794;9.928;2022-11-15T19:13:42;18.60;99.90
6468;DHT22;3267;48.794;9.928;2022-11-15T19:16:10;17.70;99.90
6468;DHT22;3267;48.794;9.928;2022-11-15T19:18:37;17.20;99.90
6468;DHT22;3267;48.794;9.928;2022-11-15T19:21:12;17.00;99.80
6468;DHT22;3267;48.794;9.928;2022-11-15T19:23:42;16.40;99.90
6468;DHT22;3267;48.794;9.928;2022-11-15T19:26:12;18.70;99.90
6468;DHT22;3267;48.794;9.928;2022-11-15T19:28:39;15.90;98.10
6468;DHT22;3267;48.794;9.928;2022-11-15T19:31:15;15.70;97.50
6468;DHT22;3267;48.794;9.928;2022-11-15T19:33:42;15.60;97.10
6468;DHT22;3267;48.794;9.928;2022-11-15T19:36:14;16.90;98.50
6468;DHT22;3267;48.794;9.928;2022-11-15T19:38:40;15.80;99.90
6468;DHT22;3267;48.794;9.928;2022-11-15T19:41:12;16.40;97.60
6468;DHT22;3267;48.794;9.928;2022-11-15T19:43:38;15.70;99.90
6468;DHT22;3267;48.794;9.928;2022-11-15T19:46:05;15.70;98.80
6468;DHT22;3267;48.794;9.928;2022-11-15T19:48:32;15.70;97.20
6468;DHT22;3267;48.794;9.928;2022-11-15T19:51:01;15.40;97.80
6468;DHT22;3267;48.794;9.928;2022-11-15T19:53:27;15.30;96.50
6468;DHT22;3267;48.794;9.928;2022-11-15T19:58:20;15.70;99.90
6468;DHT22;3267;48.794;9.928;2022-11-15T20:00:46;15.50;97.90
6468;DHT22;3267;48.794;9.928;2022-11-15T20:03:12;16.70;97.80
6468;DHT22;3267;48.794;9.928;2022-11-15T20:05:38;17.10;98.20
6468;DHT22;3267;48.794;9.928;2022-11-15T20:08:04;15.40;98.00
6468;DHT22;3267;48.794;9.928;2022-11-15T20:10:30;15.90;98.00
6468;DHT22;3267;48.794;9.928;2022-11-15T20:12:56;15.70;97.60
6468;DHT22;3267;48.794;9.928;2022-11-15T20:15:21;18.80;99.90
6468;DHT22;3267;48.794;9.928;2022-11-15T20:17:47;16.00;99.90
6468;DHT22;3267;48.794;9.928;2022-11-15T20:20:13;15.90;99.90
6468;DHT22;3267;48.794;9.928;2022-11-15T20:22:39;15.70;98.60
6468;DHT22;3267;48.794;9.928;2022-11-15T20:25:05;15.90;99.90
6468;DHT22;3267;48.794;9.928;2022-11-15T20:27:31;16.30;99.90
6468;DHT22;3267;48.794;9.928;2022-11-15T20:29:56;16.90;99.90
6468;DHT22;3267;48.794;9.928;2022-11-15T20:32:23;18.00;99.40
6468;DHT22;3267;48.794;9.928;2022-11-15T20:34:48;15.90;99.30
6468;DHT22;3267;48.794;9.928;2022-11-15T20:37:17;17.30;99.90
6468;DHT22;3267;48.794;9.928;2022-11-15T20:39:44;16.80;99.00
6468;DHT22;3267;48.794;9.928;2022-11-15T20:42:10;17.10;98.80
6468;DHT22;3267;48.794;9.928;2022-11-15T20:44:36;15.60;98.60
6468;DHT22;3267;48.794;9.928;2022-11-15T20:47:02;15.60;97.90
6468;DHT22;3267;48.794;9.928;2022-11-15T20:49:28;15.50;98.20
6468;DHT22;3267;48.794;9.928;2022-11-15T20:51:54;16.70;99.10
6468;DHT22;3267;48.794;9.928;2022-11-15T20:54:20;15.50;96.70
6468;DHT22;3267;48.794;9.928;2022-11-15T20:56:46;16.20;97.90
6468;DHT22;3267;48.794;9.928;2022-11-15T20:59:12;15.40;98.60
6468;DHT22;3267;48.794;9.928;2022-11-15T21:01:38;17.90;98.00
6468;DHT22;3267;48.794;9.928;2022-11-15T21:04:03;15.20;95.90
6468;DHT22;3267;48.794;9.928;2022-11-15T21:06:29;15.20;96.80
6468;DHT22;3267;48.794;9.928;2022-11-15T21:08:56;17.30;97.70
6468;DHT22;3267;48.794;9.928;2022-11-15T21:11:40;15.00;94.70
6468;DHT22;3267;48.794;9.928;2022-11-15T21:14:25;14.90;95.70
6468;DHT22;3267;48.794;9.928;2022-11-15T21:16:51;14.80;95.40
6468;DHT22;3267;48.794;9.928;2022-11-15T21:19:16;14.70;94.40
6468;DHT22;3267;48.794;9.928;2022-11-15T21:21:42;14.70;95.00
6468;DHT22;3267;48.794;9.928;2022-11-15T21:24:09;14.70;94.30
6468;DHT22;3267;48.794;9.928;2022-11-15T21:26:35;14.70;95.20
6468;DHT22;3267;48.794;9.928;2022-11-15T21:29:02;14.70;94.40
6468;DHT22;3267;48.794;9.928;2022-11-15T21:31:28;14.60;94.00
6468;DHT22;3267;48.794;9.928;2022-11-15T21:33:54;14.50;93.20
6468;DHT22;3267;48.794;9.928;2022-11-15T21:36:20;14.40;93.20
6468;DHT22;3267;48.794;9.928;2022-11-15T21:38:46;15.70;94.10
6468;DHT22;3267;48.794;9.928;2022-11-15T21:41:11;15.20;93.30
6468;DHT22;3267;48.794;9.928;2022-11-15T21:43:37;15.10;93.50
6468;DHT22;3267;48.794;9.928;2022-11-15T21:46:05;16.00;93.60
6468;DHT22;3267;48.794;9.928;2022-11-15T21:48:33;14.40;92.50
6468;DHT22;3267;48.794;9.928;2022-11-15T21:51:00;14.50;92.80
6468;DHT22;3267;48.794;9.928;2022-11-15T21:53:28;16.20;94.10
6468;DHT22;3267;48.794;9.928;2022-11-15T21:55:54;14.40;92.60
6468;DHT22;3267;48.794;9.928;2022-11-15T21:58:20;14.40;92.30
6468;DHT22;3267;48.794;9.928;2022-11-15T22:00:47;14.50;92.60
6468;DHT22;3267;48.794;9.928;2022-11-15T22:03:32;16.00;93.50
6468;DHT22;3267;48.794;9.928;2022-11-15T22:05:58;14.50;92.60
6468;DHT22;3267;48.794;9.928;2022-11-15T22:08:24;14.80;92.70
6468;DHT22;3267;48.794;9.928;2022-11-15T22:10:51;15.90;93.50
6468;DHT22;3267;48.794;9.928;2022-11-15T22:13:22;16.00;93.20
6468;DHT22;3267;48.794;9.928;2022-11-15T22:15:48;16.20;93.70
6468;DHT22;3267;48.794;9.928;2022-11-15T22:18:16;14.40;92.90
6468;DHT22;3267;48.794;9.928;2022-11-15T22:21:04;14.40;92.60
6468;DHT22;3267;48.794;9.928;2022-11-15T22:23:31;14.40;92.60
6468;DHT22;3267;48.794;9.928;2022-11-15T22:25:58;14.30;92.40
6468;DHT22;3267;48.794;9.928;2022-11-15T22:28:24;14.30;91.90
